sensor_id;sensor_type;location;lat;lon;timestamp;temperature;humidity
285;DHT22;127;48.770;9.212;2023-05-15T00:02:12;9.30;99.90
285;DHT22;127;48.770;9.212;2023-05-15T00:04:44;9.30;1.00
285;DHT22;127;48.770;9.212;2023-05-15T00:07:14;9.30;1.00
285;DHT22;127;48.770;9.212;2023-05-15T00:09:43;9.30;1.00
285;DHT22;127;48.770;9.212;2023-05-15T00:12:14;9.30;1.00
285;DHT22;127;48.770;9.212;2023-05-15T00:14:46;9.40;1.00
285;DHT22;127;48.770;9.212;2023-05-15T00:17:15;9.40;1.00
285;DHT22;127;48.770;9.212;2023-05-15T00:19:53;9.50;1.00
285;DHT22;127;48.770;9.212;2023-05-15T00:22:27;9.50;1.00
285;DHT22;127;48.770;9.212;2023-05-15T00:24:58;9.60;1.00
285;DHT22;127;48.770;9.212;2023-05-15T00:27:32;9.70;1.00
285;DHT22;127;48.770;9.212;2023-05-15T00:30:05;9.80;99.90
285;DHT22;127;48.770;9.212;2023-05-15T00:32:34;9.90;99.90
285;DHT22;127;48.770;9.212;2023-05-15T00:35:06;10.00;99.90
285;DHT22;127;48.770;9.212;2023-05-15T00:37:37;10.00;99.90
285;DHT22;127;48.770;9.212;2023-05-15T00:40:11;10.10;99.90
285;DHT22;127;48.770;9.212;2023-05-15T00:42:49;10.20;99.90
285;DHT22;127;48.770;9.212;2023-05-15T00:45:19;10.30;99.90
285;DHT22;127;48.770;9.212;2023-05-15T00:47:49;10.30;99.90
285;DHT22;127;48.770;9.212;2023-05-15T00:50:21;10.40;99.90
285;DHT22;127;48.770;9.212;2023-05-15T00:52:51;10.50;99.90
285;DHT22;127;48.770;9.212;2023-05-15T00:55:20;10.60;99.90
285;DHT22;127;48.770;9.212;2023-05-15T00:57:52;10.60;99.90
285;DHT22;127;48.770;9.212;2023-05-15T01:00:24;10.70;99.90
285;DHT22;127;48.770;9.212;2023-05-15T01:02:53;10.70;99.90
285;DHT22;127;48.770;9.212;2023-05-15T01:05:22;10.80;99.90
285;DHT22;127;48.770;9.212;2023-05-15T01:07:58;10.80;99.90
285;DHT22;127;48.770;9.212;2023-05-15T01:10:32;10.80;99.90
285;DHT22;127;48.770;9.212;2023-05-15T01:13:09;10.80;99.90
285;DHT22;127;48.770;9.212;2023-05-15T01:16:10;10.90;99.90
285;DHT22;127;48.770;9.212;2023-05-15T01:18:46;10.90;99.90
285;DHT22;127;48.770;9.212;2023-05-15T01:21:40;10.80;99.90
285;DHT22;127;48.770;9.212;2023-05-15T01:24:28;10.80;99.90
285;DHT22;127;48.770;9.212;2023-05-15T01:27:25;10.80;99.90
285;DHT22;127;48.770;9.212;2023-05-15T01:30:21;10.70;99.90
285;DHT22;127;48.770;9.212;2023-05-15T01:32:54;10.70;99.90
285;DHT22;127;48.770;9.212;2023-05-15T01:35:32;10.60;99.90
285;DHT22;127;48.770;9.212;2023-05-15T01:38:07;10.60;99.90
285;DHT22;127;48.770;9.212;2023-05-15T01:40:41;10.60;99.90
285;DHT22;127;48.770;9.212;2023-05-15T01:43:20;10.50;99.90
285;DHT22;127;48.770;9.212;2023-05-15T01:45:53;10.50;99.90
285;DHT22;127;48.770;9.212;2023-05-15T01:48:26;10.40;99.90
285;DHT22;127;48.770;9.212;2023-05-15T01:51:02;10.50;99.90
285;DHT22;127;48.770;9.212;2023-05-15T01:53:34;10.50;99.90
285;DHT22;127;48.770;9.212;2023-05-15T01:56:06;10.50;99.90
285;DHT22;127;48.770;9.212;2023-05-15T01:58:40;10.50;99.90
285;DHT22;127;48.770;9.212;2023-05-15T02:01:09;10.60;99.90
285;DHT22;127;48.770;9.212;2023-05-15T02:03:39;10.60;99.90
285;DHT22;127;48.770;9.212;2023-05-15T02:06:14;10.50;99.90
285;DHT22;127;48.770;9.212;2023-05-15T02:08:46;10.60;99.90
285;DHT22;127;48.770;9.212;2023-05-15T02:11:19;10.60;99.90
285;DHT22;127;48.770;9.212;2023-05-15T02:13:58;10.60;99.90
285;DHT22;127;48.770;9.212;2023-05-15T02:16:30;10.60;99.90
285;DHT22;127;48.770;9.212;2023-05-15T02:19:06;10.50;99.90
285;DHT22;127;48.770;9.212;2023-05-15T02:21:35;10.60;99.90
285;DHT22;127;48.770;9.212;2023-05-15T02:24:07;10.60;99.90
285;DHT22;127;48.770;9.212;2023-05-15T02:26:45;10.50;99.90
285;DHT22;127;48.770;9.212;2023-05-15T02:29:23;10.60;99.90
285;DHT22;127;48.770;9.212;2023-05-15T02:32:00;10.50;99.90
285;DHT22;127;48.770;9.212;2023-05-15T02:34:41;10.50;99.90
285;DHT22;127;48.770;9.212;2023-05-15T02:37:25;10.40;99.90
285;DHT22;127;48.770;9.212;2023-05-15T02:39:55;10.40;99.90
285;DHT22;127;48.770;9.212;2023-05-15T02:42:29;10.30;99.90
285;DHT22;127;48.770;9.212;2023-05-15T02:45:02;10.20;99.90
285;DHT22;127;48.770;9.212;2023-05-15T02:47:45;10.20;99.90
285;DHT22;127;48.770;9.212;2023-05-15T02:50:18;10.10;99.90
285;DHT22;127;48.770;9.212;2023-05-15T02:53:01;10.10;99.90
285;DHT22;127;48.770;9.212;2023-05-15T02:55:35;10.20;99.90
285;DHT22;127;48.770;9.212;2023-05-15T02:58:08;10.20;99.90
285;DHT22;127;48.770;9.212;2023-05-15T03:00:40;10.20;99.90
285;DHT22;127;48.770;9.212;2023-05-15T03:03:09;10.30;99.90
285;DHT22;127;48.770;9.212;2023-05-15T03:05:38;10.30;99.90
285;DHT22;127;48.770;9.212;2023-05-15T03:08:06;10.40;99.90
285;DHT22;127;48.770;9.212;2023-05-15T03:10:45;10.50;99.90
285;DHT22;127;48.770;9.212;2023-05-15T03:13:20;10.70;99.90
285;DHT22;127;48.770;9.212;2023-05-15T03:15:55;10.70;99.90
285;DHT22;127;48.770;9.212;2023-05-15T03:18:24;10.80;99.90
285;DHT22;127;48.770;9.212;2023-05-15T03:20:53;10.90;99.90
285;DHT22;127;48.770;9.212;2023-05-15T03:23:23;10.90;99.90
285;DHT22;127;48.770;9.212;2023-05-15T03:25:52;10.90;99.90
285;DHT22;127;48.770;9.212;2023-05-15T03:28:22;11.00;99.90
285;DHT22;127;48.770;9.212;2023-05-15T03:30:54;11.00;99.90
285;DHT22;127;48.770;9.212;2023-05-15T03:33:23;11.00;99.90
285;DHT22;127;48.770;9.212;2023-05-15T03:35:54;11.10;99.90
285;DHT22;127;48.770;9.212;2023-05-15T03:38:23;11.00;99.90
285;DHT22;127;48.770;9.212;2023-05-15T03:40:54;11.10;99.90
285;DHT22;127;48.770;9.212;2023-05-15T03:43:23;11.10;99.90
285;DHT22;127;48.770;9.212;2023-05-15T03:45:58;11.10;99.90
285;DHT22;127;48.770;9.212;2023-05-15T03:48:31;11.20;99.90
285;DHT22;127;48.770;9.212;2023-05-15T03:51:03;11.20;99.90
285;DHT22;127;48.770;9.212;2023-05-15T03:53:32;11.20;99.90
285;DHT22;127;48.770;9.212;2023-05-15T03:56:05;11.20;99.90
285;DHT22;127;48.770;9.212;2023-05-15T03:58:34;11.30;99.90
285;DHT22;127;48.770;9.212;2023-05-15T04:01:08;11.30;99.90
285;DHT22;127;48.770;9.212;2023-05-15T04:03:37;11.30;99.90
285;DHT22;127;48.770;9.212;2023-05-15T04:06:11;11.30;99.90
285;DHT22;127;48.770;9.212;2023-05-15T04:08:39;11.20;99.90
285;DHT22;127;48.770;9.212;2023-05-15T04:11:09;11.30;99.90
285;DHT22;127;48.770;9.212;2023-05-15T04:13:39;11.30;99.90
285;DHT22;127;48.770;9.212;2023-05-15T04:16:14;11.40;99.90
285;DHT22;127;48.770;9.212;2023-05-15T04:18:45;11.50;99.90
285;DHT22;127;48.770;9.212;2023-05-15T04:21:14;11.40;99.90
285;DHT22;127;48.770;9.212;2023-05-15T04:23:44;11.40;99.90
285;DHT22;127;48.770;9.212;2023-05-15T04:26:13;11.50;99.90
285;DHT22;127;48.770;9.212;2023-05-15T04:28:43;11.50;99.90
285;DHT22;127;48.770;9.212;2023-05-15T04:31:14;11.50;99.90
285;DHT22;127;48.770;9.212;2023-05-15T04:33:54;11.60;99.90
285;DHT22;127;48.770;9.212;2023-05-15T04:36:26;11.60;99.90
285;DHT22;127;48.770;9.212;2023-05-15T04:39:00;11.70;99.90
285;DHT22;127;48.770;9.212;2023-05-15T04:41:29;11.70;99.90
285;DHT22;127;48.770;9.212;2023-05-15T04:43:58;11.80;99.90
285;DHT22;127;48.770;9.212;2023-05-15T04:46:29;11.90;99.90
285;DHT22;127;48.770;9.212;2023-05-15T04:49:02;11.90;99.90
285;DHT22;127;48.770;9.212;2023-05-15T04:51:34;12.00;99.90
285;DHT22;127;48.770;9.212;2023-05-15T04:54:06;12.00;99.90
285;DHT22;127;48.770;9.212;2023-05-15T04:56:36;12.00;99.90
285;DHT22;127;48.770;9.212;2023-05-15T04:59:10;12.10;99.90
285;DHT22;127;48.770;9.212;2023-05-15T05:01:44;12.20;99.90
285;DHT22;127;48.770;9.212;2023-05-15T05:04:13;12.20;99.90
285;DHT22;127;48.770;9.212;2023-05-15T05:06:47;12.30;99.90
285;DHT22;127;48.770;9.212;2023-05-15T05:09:20;12.30;99.90
285;DHT22;127;48.770;9.212;2023-05-15T05:11:49;12.40;99.90
285;DHT22;127;48.770;9.212;2023-05-15T05:16:59;12.60;99.90
285;DHT22;127;48.770;9.212;2023-05-15T05:19:32;12.70;99.90
285;DHT22;127;48.770;9.212;2023-05-15T05:22:02;12.80;99.90
285;DHT22;127;48.770;9.212;2023-05-15T05:24:33;12.90;99.90
285;DHT22;127;48.770;9.212;2023-05-15T05:27:09;12.90;99.90
285;DHT22;127;48.770;9.212;2023-05-15T05:29:44;12.80;99.90
285;DHT22;127;48.770;9.212;2023-05-15T05:32:16;13.00;99.90
285;DHT22;127;48.770;9.212;2023-05-15T05:34:45;13.20;99.90
285;DHT22;127;48.770;9.212;2023-05-15T05:37:19;13.20;99.90
285;DHT22;127;48.770;9.212;2023-05-15T05:40:03;13.30;99.90
285;DHT22;127;48.770;9.212;2023-05-15T05:42:39;13.20;99.90
285;DHT22;127;48.770;9.212;2023-05-15T05:45:10;13.30;99.90
285;DHT22;127;48.770;9.212;2023-05-15T05:47:43;13.30;99.90
285;DHT22;127;48.770;9.212;2023-05-15T05:50:15;13.30;99.90
285;DHT22;127;48.770;9.212;2023-05-15T05:52:47;13.30;99.90
285;DHT22;127;48.770;9.212;2023-05-15T05:55:17;13.40;99.90
285;DHT22;127;48.770;9.212;2023-05-15T05:57:51;13.40;99.90
285;DHT22;127;48.770;9.212;2023-05-15T06:00:22;13.50;99.90
285;DHT22;127;48.770;9.212;2023-05-15T06:02:56;13.50;99.90
285;DHT22;127;48.770;9.212;2023-05-15T06:05:28;13.50;99.90
285;DHT22;127;48.770;9.212;2023-05-15T06:07:57;13.30;99.90
285;DHT22;127;48.770;9.212;2023-05-15T06:10:28;13.20;99.90
285;DHT22;127;48.770;9.212;2023-05-15T06:13:03;13.30;99.90
285;DHT22;127;48.770;9.212;2023-05-15T06:15:32;13.10;99.90
285;DHT22;127;48.770;9.212;2023-05-15T06:18:03;13.20;99.90
285;DHT22;127;48.770;9.212;2023-05-15T06:20:32;13.30;99.90
285;DHT22;127;48.770;9.212;2023-05-15T06:23:03;13.30;99.90
285;DHT22;127;48.770;9.212;2023-05-15T06:25:34;13.30;99.90
285;DHT22;127;48.770;9.212;2023-05-15T06:28:05;13.20;99.90
285;DHT22;127;48.770;9.212;2023-05-15T06:30:33;13.20;99.90
285;DHT22;127;48.770;9.212;2023-05-15T06:33:09;13.30;99.90
285;DHT22;127;48.770;9.212;2023-05-15T06:35:55;13.40;99.90
285;DHT22;127;48.770;9.212;2023-05-15T06:41:50;13.40;99.90
285;DHT22;127;48.770;9.212;2023-05-15T06:44:22;13.50;99.90
285;DHT22;127;48.770;9.212;2023-05-15T06:46:51;13.60;99.90
285;DHT22;127;48.770;9.212;2023-05-15T06:49:23;13.70;99.90
285;DHT22;127;48.770;9.212;2023-05-15T06:52:03;13.80;99.90
285;DHT22;127;48.770;9.212;2023-05-15T06:54:34;13.90;99.90
285;DHT22;127;48.770;9.212;2023-05-15T06:57:05;14.00;99.90
285;DHT22;127;48.770;9.212;2023-05-15T06:59:34;14.10;99.90
285;DHT22;127;48.770;9.212;2023-05-15T07:02:05;14.20;99.90
285;DHT22;127;48.770;9.212;2023-05-15T07:04:37;14.30;99.90
285;DHT22;127;48.770;9.212;2023-05-15T07:07:05;14.50;99.90
285;DHT22;127;48.770;9.212;2023-05-15T07:09:36;14.60;99.90
285;DHT22;127;48.770;9.212;2023-05-15T07:12:06;14.70;99.90
285;DHT22;127;48.770;9.212;2023-05-15T07:14:38;14.60;99.90
285;DHT22;127;48.770;9.212;2023-05-15T07:17:14;14.80;99.90
285;DHT22;127;48.770;9.212;2023-05-15T07:19:50;14.70;99.90
285;DHT22;127;48.770;9.212;2023-05-15T07:22:18;14.90;99.90
285;DHT22;127;48.770;9.212;2023-05-15T07:24:53;15.00;99.90
285;DHT22;127;48.770;9.212;2023-05-15T07:27:24;15.10;99.90
285;DHT22;127;48.770;9.212;2023-05-15T07:29:53;15.20;99.90
285;DHT22;127;48.770;9.212;2023-05-15T07:32:22;15.30;99.90
285;DHT22;127;48.770;9.212;2023-05-15T07:34:55;15.40;99.90
285;DHT22;127;48.770;9.212;2023-05-15T07:37:24;15.50;99.90
285;DHT22;127;48.770;9.212;2023-05-15T07:39:57;15.70;99.90
285;DHT22;127;48.770;9.212;2023-05-15T07:43:16;15.70;99.90
285;DHT22;127;48.770;9.212;2023-05-15T07:45:48;15.80;99.90
285;DHT22;127;48.770;9.212;2023-05-15T07:48:22;15.80;99.90
285;DHT22;127;48.770;9.212;2023-05-15T07:50:59;16.00;99.90
285;DHT22;127;48.770;9.212;2023-05-15T07:53:28;15.90;99.90
285;DHT22;127;48.770;9.212;2023-05-15T07:56:00;16.10;99.90
285;DHT22;127;48.770;9.212;2023-05-15T07:58:31;16.20;99.90
285;DHT22;127;48.770;9.212;2023-05-15T08:01:02;16.40;99.90
285;DHT22;127;48.770;9.212;2023-05-15T08:03:37;16.50;99.90
285;DHT22;127;48.770;9.212;2023-05-15T08:06:10;16.70;99.90
285;DHT22;127;48.770;9.212;2023-05-15T08:08:40;16.80;99.90
285;DHT22;127;48.770;9.212;2023-05-15T08:11:09;16.90;99.90
285;DHT22;127;48.770;9.212;2023-05-15T08:13:41;17.00;99.90
285;DHT22;127;48.770;9.212;2023-05-15T08:16:11;17.10;99.90
285;DHT22;127;48.770;9.212;2023-05-15T08:18:40;17.20;99.90
285;DHT22;127;48.770;9.212;2023-05-15T08:21:11;17.20;99.90
285;DHT22;127;48.770;9.212;2023-05-15T08:23:40;17.20;99.90
285;DHT22;127;48.770;9.212;2023-05-15T08:26:09;17.20;99.90
285;DHT22;127;48.770;9.212;2023-05-15T08:28:38;17.30;99.90
285;DHT22;127;48.770;9.212;2023-05-15T08:31:06;17.30;99.90
285;DHT22;127;48.770;9.212;2023-05-15T08:33:35;17.40;99.90
285;DHT22;127;48.770;9.212;2023-05-15T08:36:04;17.60;99.90
285;DHT22;127;48.770;9.212;2023-05-15T08:38:36;17.90;99.90
285;DHT22;127;48.770;9.212;2023-05-15T08:41:07;18.20;99.90
285;DHT22;127;48.770;9.212;2023-05-15T08:43:40;18.50;99.90
285;DHT22;127;48.770;9.212;2023-05-15T08:46:10;18.80;99.90
285;DHT22;127;48.770;9.212;2023-05-15T08:48:41;19.10;99.90
285;DHT22;127;48.770;9.212;2023-05-15T08:51:10;19.50;99.90
285;DHT22;127;48.770;9.212;2023-05-15T08:53:51;19.90;99.90
285;DHT22;127;48.770;9.212;2023-05-15T08:56:19;20.70;99.90
285;DHT22;127;48.770;9.212;2023-05-15T08:58:50;22.00;99.90
285;DHT22;127;48.770;9.212;2023-05-15T09:01:21;22.60;99.90
285;DHT22;127;48.770;9.212;2023-05-15T09:03:50;23.10;99.90
285;DHT22;127;48.770;9.212;2023-05-15T09:06:22;23.50;99.90
285;DHT22;127;48.770;9.212;2023-05-15T09:08:57;24.50;99.90
285;DHT22;127;48.770;9.212;2023-05-15T09:11:33;24.00;99.90
285;DHT22;127;48.770;9.212;2023-05-15T09:14:08;24.10;99.90
285;DHT22;127;48.770;9.212;2023-05-15T09:16:37;24.70;99.90
285;DHT22;127;48.770;9.212;2023-05-15T09:19:09;25.30;99.90
285;DHT22;127;48.770;9.212;2023-05-15T09:21:48;26.00;99.90
285;DHT22;127;48.770;9.212;2023-05-15T09:24:21;26.40;99.90
285;DHT22;127;48.770;9.212;2023-05-15T09:27:00;25.40;99.90
285;DHT22;127;48.770;9.212;2023-05-15T09:29:33;23.50;99.90
285;DHT22;127;48.770;9.212;2023-05-15T09:32:06;21.90;99.90
285;DHT22;127;48.770;9.212;2023-05-15T09:34:39;21.50;99.90
285;DHT22;127;48.770;9.212;2023-05-15T09:37:09;20.70;99.90
285;DHT22;127;48.770;9.212;2023-05-15T09:39:44;20.20;99.90
285;DHT22;127;48.770;9.212;2023-05-15T09:42:14;19.60;99.90
285;DHT22;127;48.770;9.212;2023-05-15T09:44:43;20.00;99.90
285;DHT22;127;48.770;9.212;2023-05-15T09:47:13;21.70;99.90
285;DHT22;127;48.770;9.212;2023-05-15T09:49:44;23.20;99.90
285;DHT22;127;48.770;9.212;2023-05-15T09:52:20;23.90;99.90
285;DHT22;127;48.770;9.212;2023-05-15T09:54:52;25.10;99.90
285;DHT22;127;48.770;9.212;2023-05-15T09:57:21;25.40;99.90
285;DHT22;127;48.770;9.212;2023-05-15T09:59:52;26.60;99.90
285;DHT22;127;48.770;9.212;2023-05-15T10:02:22;28.10;99.90
285;DHT22;127;48.770;9.212;2023-05-15T10:04:56;28.40;99.90
285;DHT22;127;48.770;9.212;2023-05-15T10:07:29;27.70;99.90
285;DHT22;127;48.770;9.212;2023-05-15T10:10:02;27.60;99.90
285;DHT22;127;48.770;9.212;2023-05-15T10:12:34;27.40;99.90
285;DHT22;127;48.770;9.212;2023-05-15T10:15:04;27.50;99.90
285;DHT22;127;48.770;9.212;2023-05-15T10:17:35;28.30;99.90
285;DHT22;127;48.770;9.212;2023-05-15T10:20:06;28.90;99.90
285;DHT22;127;48.770;9.212;2023-05-15T10:22:37;30.20;99.90
285;DHT22;127;48.770;9.212;2023-05-15T10:25:20;30.50;99.90
285;DHT22;127;48.770;9.212;2023-05-15T10:27:51;28.90;99.90
285;DHT22;127;48.770;9.212;2023-05-15T10:30:21;28.80;99.90
285;DHT22;127;48.770;9.212;2023-05-15T10:32:51;28.20;99.90
285;DHT22;127;48.770;9.212;2023-05-15T10:35:22;28.70;99.90
285;DHT22;127;48.770;9.212;2023-05-15T10:37:55;28.30;99.90
285;DHT22;127;48.770;9.212;2023-05-15T10:40:29;29.30;99.90
285;DHT22;127;48.770;9.212;2023-05-15T10:43:04;29.60;99.90
285;DHT22;127;48.770;9.212;2023-05-15T10:45:38;30.30;99.90
285;DHT22;127;48.770;9.212;2023-05-15T10:48:10;30.70;99.90
285;DHT22;127;48.770;9.212;2023-05-15T10:50:40;30.90;99.90
285;DHT22;127;48.770;9.212;2023-05-15T10:53:14;31.10;99.90
285;DHT22;127;48.770;9.212;2023-05-15T10:55:49;30.30;99.90
285;DHT22;127;48.770;9.212;2023-05-15T10:58:22;28.60;99.90
285;DHT22;127;48.770;9.212;2023-05-15T11:00:51;26.90;99.90
285;DHT22;127;48.770;9.212;2023-05-15T11:03:35;26.60;99.90
285;DHT22;127;48.770;9.212;2023-05-15T11:06:08;26.80;99.90
285;DHT22;127;48.770;9.212;2023-05-15T11:08:38;27.60;99.90
285;DHT22;127;48.770;9.212;2023-05-15T11:14:19;27.40;99.90
285;DHT22;127;48.770;9.212;2023-05-15T11:16:59;26.00;99.90
285;DHT22;127;48.770;9.212;2023-05-15T11:19:36;24.80;99.90
285;DHT22;127;48.770;9.212;2023-05-15T11:22:17;24.10;99.90
285;DHT22;127;48.770;9.212;2023-05-15T11:25:00;25.10;99.90
285;DHT22;127;48.770;9.212;2023-05-15T11:27:32;25.30;99.90
285;DHT22;127;48.770;9.212;2023-05-15T11:30:10;25.10;99.90
285;DHT22;127;48.770;9.212;2023-05-15T11:35:27;23.80;99.90
285;DHT22;127;48.770;9.212;2023-05-15T11:37:59;23.10;99.90
285;DHT22;127;48.770;9.212;2023-05-15T11:40:36;23.40;99.90
285;DHT22;127;48.770;9.212;2023-05-15T11:43:19;25.00;99.90
285;DHT22;127;48.770;9.212;2023-05-15T11:45:53;25.70;99.90
285;DHT22;127;48.770;9.212;2023-05-15T11:48:24;25.10;99.90
285;DHT22;127;48.770;9.212;2023-05-15T11:50:52;24.40;99.90
285;DHT22;127;48.770;9.212;2023-05-15T11:53:23;25.30;99.90
285;DHT22;127;48.770;9.212;2023-05-15T11:55:53;25.20;99.90
285;DHT22;127;48.770;9.212;2023-05-15T11:58:23;24.60;99.90
285;DHT22;127;48.770;9.212;2023-05-15T12:00:56;24.30;99.90
285;DHT22;127;48.770;9.212;2023-05-15T12:03:35;25.40;99.90
285;DHT22;127;48.770;9.212;2023-05-15T12:06:11;25.20;99.90
285;DHT22;127;48.770;9.212;2023-05-15T12:08:39;24.90;99.90
285;DHT22;127;48.770;9.212;2023-05-15T12:11:10;26.00;99.90
285;DHT22;127;48.770;9.212;2023-05-15T12:13:43;27.20;99.90
285;DHT22;127;48.770;9.212;2023-05-15T12:16:18;28.10;99.90
285;DHT22;127;48.770;9.212;2023-05-15T12:18:50;28.00;99.90
285;DHT22;127;48.770;9.212;2023-05-15T12:21:19;27.20;99.90
285;DHT22;127;48.770;9.212;2023-05-15T12:23:51;28.50;99.90
285;DHT22;127;48.770;9.212;2023-05-15T12:26:20;29.70;99.90
285;DHT22;127;48.770;9.212;2023-05-15T12:28:57;30.40;99.90
285;DHT22;127;48.770;9.212;2023-05-15T12:31:28;31.60;99.90
285;DHT22;127;48.770;9.212;2023-05-15T12:34:02;30.40;99.90
285;DHT22;127;48.770;9.212;2023-05-15T12:36:31;29.10;99.90
285;DHT22;127;48.770;9.212;2023-05-15T12:39:07;28.00;99.90
285;DHT22;127;48.770;9.212;2023-05-15T12:41:36;26.50;99.90
285;DHT22;127;48.770;9.212;2023-05-15T12:44:15;25.30;99.90
285;DHT22;127;48.770;9.212;2023-05-15T12:46:46;25.40;99.90
285;DHT22;127;48.770;9.212;2023-05-15T12:49:20;26.10;99.90
285;DHT22;127;48.770;9.212;2023-05-15T12:51:51;26.80;99.90
285;DHT22;127;48.770;9.212;2023-05-15T12:54:20;26.90;99.90
285;DHT22;127;48.770;9.212;2023-05-15T12:56:49;25.80;99.90
285;DHT22;127;48.770;9.212;2023-05-15T12:59:18;25.30;99.90
285;DHT22;127;48.770;9.212;2023-05-15T13:01:51;24.50;99.90
285;DHT22;127;48.770;9.212;2023-05-15T13:04:36;23.70;99.90
285;DHT22;127;48.770;9.212;2023-05-15T13:07:05;23.20;99.90
285;DHT22;127;48.770;9.212;2023-05-15T13:09:34;23.50;99.90
285;DHT22;127;48.770;9.212;2023-05-15T13:12:03;22.90;99.90
285;DHT22;127;48.770;9.212;2023-05-15T13:14:32;22.70;99.90
285;DHT22;127;48.770;9.212;2023-05-15T13:17:04;22.50;99.90
285;DHT22;127;48.770;9.212;2023-05-15T13:19:33;22.40;99.90
285;DHT22;127;48.770;9.212;2023-05-15T13:22:02;22.20;99.90
285;DHT22;127;48.770;9.212;2023-05-15T13:24:33;22.60;99.90
285;DHT22;127;48.770;9.212;2023-05-15T13:27:03;23.40;99.90
285;DHT22;127;48.770;9.212;2023-05-15T13:29:32;22.80;99.90
285;DHT22;127;48.770;9.212;2023-05-15T13:32:04;22.60;99.90
285;DHT22;127;48.770;9.212;2023-05-15T13:34:32;22.00;99.90
285;DHT22;127;48.770;9.212;2023-05-15T13:37:01;21.90;99.90
285;DHT22;127;48.770;9.212;2023-05-15T13:39:32;21.90;99.90
285;DHT22;127;48.770;9.212;2023-05-15T13:42:05;21.70;99.90
285;DHT22;127;48.770;9.212;2023-05-15T13:44:33;22.10;99.90
285;DHT22;127;48.770;9.212;2023-05-15T13:47:05;22.50;99.90
285;DHT22;127;48.770;9.212;2023-05-15T13:49:34;22.70;99.90
285;DHT22;127;48.770;9.212;2023-05-15T13:52:04;22.70;99.90
285;DHT22;127;48.770;9.212;2023-05-15T13:54:32;22.20;99.90
285;DHT22;127;48.770;9.212;2023-05-15T13:57:01;21.60;99.90
285;DHT22;127;48.770;9.212;2023-05-15T13:59:33;21.10;99.90
285;DHT22;127;48.770;9.212;2023-05-15T14:02:04;20.80;99.90
285;DHT22;127;48.770;9.212;2023-05-15T14:04:36;20.80;99.90
285;DHT22;127;48.770;9.212;2023-05-15T14:07:05;20.70;99.90
285;DHT22;127;48.770;9.212;2023-05-15T14:09:34;20.40;99.90
285;DHT22;127;48.770;9.212;2023-05-15T14:12:03;20.40;99.90
285;DHT22;127;48.770;9.212;2023-05-15T14:14:32;20.50;99.90
285;DHT22;127;48.770;9.212;2023-05-15T14:17:00;20.70;99.90
285;DHT22;127;48.770;9.212;2023-05-15T14:19:32;21.40;99.90
285;DHT22;127;48.770;9.212;2023-05-15T14:22:01;21.90;99.90
285;DHT22;127;48.770;9.212;2023-05-15T14:24:30;22.50;99.90
285;DHT22;127;48.770;9.212;2023-05-15T14:26:59;23.20;99.90
285;DHT22;127;48.770;9.212;2023-05-15T14:29:28;23.30;99.90
285;DHT22;127;48.770;9.212;2023-05-15T14:31:56;23.30;99.90
285;DHT22;127;48.770;9.212;2023-05-15T14:34:25;23.00;99.90
285;DHT22;127;48.770;9.212;2023-05-15T14:36:56;22.80;99.90
285;DHT22;127;48.770;9.212;2023-05-15T14:39:25;22.50;99.90
285;DHT22;127;48.770;9.212;2023-05-15T14:41:54;21.90;99.90
285;DHT22;127;48.770;9.212;2023-05-15T14:44:25;21.50;99.90
285;DHT22;127;48.770;9.212;2023-05-15T14:47:09;21.10;99.90
285;DHT22;127;48.770;9.212;2023-05-15T14:49:38;21.20;99.90
285;DHT22;127;48.770;9.212;2023-05-15T14:52:10;21.20;99.90
285;DHT22;127;48.770;9.212;2023-05-15T14:54:39;21.30;99.90
285;DHT22;127;48.770;9.212;2023-05-15T14:57:37;21.60;99.90
285;DHT22;127;48.770;9.212;2023-05-15T15:00:11;21.80;99.90
285;DHT22;127;48.770;9.212;2023-05-15T15:02:41;21.70;99.90
285;DHT22;127;48.770;9.212;2023-05-15T15:05:10;21.60;99.90
285;DHT22;127;48.770;9.212;2023-05-15T15:11:10;21.30;99.90
285;DHT22;127;48.770;9.212;2023-05-15T15:13:39;21.10;99.90
285;DHT22;127;48.770;9.212;2023-05-15T15:16:08;20.60;99.90
285;DHT22;127;48.770;9.212;2023-05-15T15:18:37;20.30;99.90
285;DHT22;127;48.770;9.212;2023-05-15T15:21:06;19.90;99.90
285;DHT22;127;48.770;9.212;2023-05-15T15:23:37;19.60;99.90
285;DHT22;127;48.770;9.212;2023-05-15T15:26:09;19.40;99.90
285;DHT22;127;48.770;9.212;2023-05-15T15:28:37;19.00;99.90
285;DHT22;127;48.770;9.212;2023-05-15T15:31:11;18.60;99.90
285;DHT22;127;48.770;9.212;2023-05-15T15:33:40;18.60;99.90
285;DHT22;127;48.770;9.212;2023-05-15T15:36:09;18.40;99.90
285;DHT22;127;48.770;9.212;2023-05-15T15:38:37;18.40;99.90
285;DHT22;127;48.770;9.212;2023-05-15T15:41:11;18.80;99.90
285;DHT22;127;48.770;9.212;2023-05-15T15:43:39;19.40;99.90
285;DHT22;127;48.770;9.212;2023-05-15T15:46:10;19.90;99.90
285;DHT22;127;48.770;9.212;2023-05-15T15:48:41;19.90;99.90
285;DHT22;127;48.770;9.212;2023-05-15T15:51:11;19.80;99.90
285;DHT22;127;48.770;9.212;2023-05-15T15:53:41;19.20;99.90
285;DHT22;127;48.770;9.212;2023-05-15T15:56:12;19.00;99.90
285;DHT22;127;48.770;9.212;2023-05-15T15:58:41;18.60;99.90
285;DHT22;127;48.770;9.212;2023-05-15T16:01:10;18.40;99.90
285;DHT22;127;48.770;9.212;2023-05-15T16:03:44;18.10;99.90
285;DHT22;127;48.770;9.212;2023-05-15T16:06:12;17.60;99.90
285;DHT22;127;48.770;9.212;2023-05-15T16:08:47;17.40;99.90
285;DHT22;127;48.770;9.212;2023-05-15T16:11:18;17.00;99.90
285;DHT22;127;48.770;9.212;2023-05-15T16:13:50;16.70;99.90
285;DHT22;127;48.770;9.212;2023-05-15T16:16:20;16.40;99.90
285;DHT22;127;48.770;9.212;2023-05-15T16:18:55;16.30;99.90
285;DHT22;127;48.770;9.212;2023-05-15T16:21:27;16.20;99.90
285;DHT22;127;48.770;9.212;2023-05-15T16:24:00;16.20;99.90
285;DHT22;127;48.770;9.212;2023-05-15T16:26:32;16.20;99.90
285;DHT22;127;48.770;9.212;2023-05-15T16:29:04;16.10;99.90
285;DHT22;127;48.770;9.212;2023-05-15T16:31:35;15.90;99.90
285;DHT22;127;48.770;9.212;2023-05-15T16:34:13;15.50;99.90
285;DHT22;127;48.770;9.212;2023-05-15T16:36:42;15.40;99.90
285;DHT22;127;48.770;9.212;2023-05-15T16:39:24;15.30;99.90
285;DHT22;127;48.770;9.212;2023-05-15T16:41:55;15.20;99.90
285;DHT22;127;48.770;9.212;2023-05-15T16:44:25;15.00;99.90
285;DHT22;127;48.770;9.212;2023-05-15T16:47:05;15.00;99.90
285;DHT22;127;48.770;9.212;2023-05-15T16:49:37;14.90;99.90
285;DHT22;127;48.770;9.212;2023-05-15T16:52:07;14.90;99.90
285;DHT22;127;48.770;9.212;2023-05-15T16:54:44;14.90;99.90
285;DHT22;127;48.770;9.212;2023-05-15T16:57:15;15.00;99.90
285;DHT22;127;48.770;9.212;2023-05-15T16:59:47;15.00;99.90
285;DHT22;127;48.770;9.212;2023-05-15T17:02:18;15.10;99.90
285;DHT22;127;48.770;9.212;2023-05-15T17:04:47;15.10;99.90
285;DHT22;127;48.770;9.212;2023-05-15T17:07:43;15.10;99.90
285;DHT22;127;48.770;9.212;2023-05-15T17:10:27;15.00;99.90
285;DHT22;127;48.770;9.212;2023-05-15T17:12:58;15.30;99.90
285;DHT22;127;48.770;9.212;2023-05-15T17:15:45;15.40;99.90
285;DHT22;127;48.770;9.212;2023-05-15T17:18:17;15.60;99.90
285;DHT22;127;48.770;9.212;2023-05-15T17:20:49;15.80;99.90
285;DHT22;127;48.770;9.212;2023-05-15T17:23:23;16.00;99.90
285;DHT22;127;48.770;9.212;2023-05-15T17:26:01;16.10;99.90